sensor_id;sensor_type;location;lat;lon;timestamp;temperature;humidity
8850;DHT22;5638;50.860;4.698;2022-10-16T00:01:26;15.10;99.90
8850;DHT22;5638;50.860;4.698;2022-10-16T00:03:55;15.10;99.90
8850;DHT22;5638;50.860;4.698;2022-10-16T00:06:22;15.00;99.90
8850;DHT22;5638;50.860;4.698;2022-10-16T00:08:49;15.10;99.90
8850;DHT22;5638;50.860;4.698;2022-10-16T00:11:22;15.10;99.90
8850;DHT22;5638;50.860;4.698;2022-10-16T00:13:50;15.00;99.90
8850;DHT22;5638;50.860;4.698;2022-10-16T00:16:18;15.00;99.90
8850;DHT22;5638;50.860;4.698;2022-10-16T00:18:44;15.10;99.90
8850;DHT22;5638;50.860;4.698;2022-10-16T00:21:13;15.00;99.90
8850;DHT22;5638;50.860;4.698;2022-10-16T00:23:41;14.90;99.90
8850;DHT22;5638;50.860;4.698;2022-10-16T00:26:10;14.90;99.90
8850;DHT22;5638;50.860;4.698;2022-10-16T00:28:39;14.90;99.90
8850;DHT22;5638;50.860;4.698;2022-10-16T00:31:06;14.90;99.90
8850;DHT22;5638;50.860;4.698;2022-10-16T00:33:34;14.90;99.90
8850;DHT22;5638;50.860;4.698;2022-10-16T00:36:02;14.90;99.90
8850;DHT22;5638;50.860;4.698;2022-10-16T00:38:29;14.90;99.90
8850;DHT22;5638;50.860;4.698;2022-10-16T00:40:55;14.90;99.90
8850;DHT22;5638;50.860;4.698;2022-10-16T00:46:20;15.00;99.90
8850;DHT22;5638;50.860;4.698;2022-10-16T00:49:03;14.80;99.90
8850;DHT22;5638;50.860;4.698;2022-10-16T00:51:37;14.80;99.90
8850;DHT22;5638;50.860;4.698;2022-10-16T00:54:32;14.80;99.90
8850;DHT22;5638;50.860;4.698;2022-10-16T00:57:05;14.70;99.90
8850;DHT22;5638;50.860;4.698;2022-10-16T00:59:37;14.70;99.90
8850;DHT22;5638;50.860;4.698;2022-10-16T01:02:07;14.70;99.90
8850;DHT22;5638;50.860;4.698;2022-10-16T01:04:38;14.70;99.90
8850;DHT22;5638;50.860;4.698;2022-10-16T01:10:31;14.70;99.90
8850;DHT22;5638;50.860;4.698;2022-10-16T01:13:18;14.70;99.90
8850;DHT22;5638;50.860;4.698;2022-10-16T01:15:52;14.80;99.90
8850;DHT22;5638;50.860;4.698;2022-10-16T01:18:35;14.70;99.90
8850;DHT22;5638;50.860;4.698;2022-10-16T01:21:22;14.70;99.90
8850;DHT22;5638;50.860;4.698;2022-10-16T01:24:27;14.60;99.90
8850;DHT22;5638;50.860;4.698;2022-10-16T01:29:31;14.60;99.90
8850;DHT22;5638;50.860;4.698;2022-10-16T01:32:10;14.50;99.90
8850;DHT22;5638;50.860;4.698;2022-10-16T01:41:21;14.70;99.90
8850;DHT22;5638;50.860;4.698;2022-10-16T01:44:30;14.60;99.90
8850;DHT22;5638;50.860;4.698;2022-10-16T01:46:59;14.50;99.90
8850;DHT22;5638;50.860;4.698;2022-10-16T01:49:31;14.60;99.90
8850;DHT22;5638;50.860;4.698;2022-10-16T01:52:04;14.50;99.90
8850;DHT22;5638;50.860;4.698;2022-10-16T01:54:35;14.60;99.90
8850;DHT22;5638;50.860;4.698;2022-10-16T01:57:05;14.50;99.90
8850;DHT22;5638;50.860;4.698;2022-10-16T01:59:38;14.50;99.90
8850;DHT22;5638;50.860;4.698;2022-10-16T02:02:10;14.50;99.90
8850;DHT22;5638;50.860;4.698;2022-10-16T02:04:44;14.60;99.90
8850;DHT22;5638;50.860;4.698;2022-10-16T02:07:12;14.60;99.90
8850;DHT22;5638;50.860;4.698;2022-10-16T02:09:39;14.60;99.90
8850;DHT22;5638;50.860;4.698;2022-10-16T02:12:43;14.50;99.90
8850;DHT22;5638;50.860;4.698;2022-10-16T02:15:05;14.50;99.90
8850;DHT22;5638;50.860;4.698;2022-10-16T02:17:32;14.50;99.90
8850;DHT22;5638;50.860;4.698;2022-10-16T02:19:59;14.50;99.90
8850;DHT22;5638;50.860;4.698;2022-10-16T02:22:45;14.50;99.90
8850;DHT22;5638;50.860;4.698;2022-10-16T02:25:33;14.40;99.90
8850;DHT22;5638;50.860;4.698;2022-10-16T02:28:08;14.40;99.90
8850;DHT22;5638;50.860;4.698;2022-10-16T02:30:45;14.40;99.90
8850;DHT22;5638;50.860;4.698;2022-10-16T02:33:15;14.40;99.90
8850;DHT22;5638;50.860;4.698;2022-10-16T02:35:44;14.40;99.90
8850;DHT22;5638;50.860;4.698;2022-10-16T02:38:14;14.40;99.90
8850;DHT22;5638;50.860;4.698;2022-10-16T02:40:43;14.40;99.90
8850;DHT22;5638;50.860;4.698;2022-10-16T02:43:09;14.40;99.90
8850;DHT22;5638;50.860;4.698;2022-10-16T02:45:36;14.40;99.90
8850;DHT22;5638;50.860;4.698;2022-10-16T02:48:02;14.40;99.90
8850;DHT22;5638;50.860;4.698;2022-10-16T02:50:28;14.40;99.90
8850;DHT22;5638;50.860;4.698;2022-10-16T02:52:54;14.40;99.90
8850;DHT22;5638;50.860;4.698;2022-10-16T02:55:20;14.40;99.90
8850;DHT22;5638;50.860;4.698;2022-10-16T02:57:46;14.40;99.90
8850;DHT22;5638;50.860;4.698;2022-10-16T03:00:14;14.40;99.90
8850;DHT22;5638;50.860;4.698;2022-10-16T03:02:41;14.40;99.90
8850;DHT22;5638;50.860;4.698;2022-10-16T03:05:08;14.40;99.90
8850;DHT22;5638;50.860;4.698;2022-10-16T03:07:35;14.40;99.90
8850;DHT22;5638;50.860;4.698;2022-10-16T03:10:00;14.40;99.90
8850;DHT22;5638;50.860;4.698;2022-10-16T03:12:27;14.40;99.90
8850;DHT22;5638;50.860;4.698;2022-10-16T03:14:54;14.50;99.90
8850;DHT22;5638;50.860;4.698;2022-10-16T03:17:22;14.50;99.90
8850;DHT22;5638;50.860;4.698;2022-10-16T03:19:49;14.50;99.90
8850;DHT22;5638;50.860;4.698;2022-10-16T03:22:15;14.40;99.90
8850;DHT22;5638;50.860;4.698;2022-10-16T03:24:41;14.50;99.90
8850;DHT22;5638;50.860;4.698;2022-10-16T03:27:07;14.40;99.90
8850;DHT22;5638;50.860;4.698;2022-10-16T03:29:33;14.40;99.90
8850;DHT22;5638;50.860;4.698;2022-10-16T03:31:59;14.40;99.90
8850;DHT22;5638;50.860;4.698;2022-10-16T03:34:26;14.40;99.90
8850;DHT22;5638;50.860;4.698;2022-10-16T03:36:52;14.40;99.90
8850;DHT22;5638;50.860;4.698;2022-10-16T03:39:18;14.50;99.90
8850;DHT22;5638;50.860;4.698;2022-10-16T03:41:44;14.40;99.90
8850;DHT22;5638;50.860;4.698;2022-10-16T03:44:12;14.40;99.90
8850;DHT22;5638;50.860;4.698;2022-10-16T03:46:38;14.40;99.90
8850;DHT22;5638;50.860;4.698;2022-10-16T03:49:04;14.40;99.90
8850;DHT22;5638;50.860;4.698;2022-10-16T03:51:30;14.40;99.90
8850;DHT22;5638;50.860;4.698;2022-10-16T03:53:56;14.40;99.90
8850;DHT22;5638;50.860;4.698;2022-10-16T03:56:22;14.30;99.90
8850;DHT22;5638;50.860;4.698;2022-10-16T03:58:48;14.40;99.90
8850;DHT22;5638;50.860;4.698;2022-10-16T04:01:14;14.40;99.90
8850;DHT22;5638;50.860;4.698;2022-10-16T04:03:40;14.40;99.90
8850;DHT22;5638;50.860;4.698;2022-10-16T04:06:05;14.30;99.90
8850;DHT22;5638;50.860;4.698;2022-10-16T04:08:31;14.40;99.90
8850;DHT22;5638;50.860;4.698;2022-10-16T04:11:00;14.30;99.90
8850;DHT22;5638;50.860;4.698;2022-10-16T04:13:26;14.30;99.90
8850;DHT22;5638;50.860;4.698;2022-10-16T04:15:52;14.30;99.90
8850;DHT22;5638;50.860;4.698;2022-10-16T04:18:18;14.30;99.90
8850;DHT22;5638;50.860;4.698;2022-10-16T04:20:44;14.20;99.90
8850;DHT22;5638;50.860;4.698;2022-10-16T04:23:10;14.20;99.90
8850;DHT22;5638;50.860;4.698;2022-10-16T04:25:35;14.20;99.90
8850;DHT22;5638;50.860;4.698;2022-10-16T04:28:02;14.20;99.90
8850;DHT22;5638;50.860;4.698;2022-10-16T04:30:28;14.30;99.90
8850;DHT22;5638;50.860;4.698;2022-10-16T04:32:54;14.30;99.90
8850;DHT22;5638;50.860;4.698;2022-10-16T04:35:20;14.40;99.90
8850;DHT22;5638;50.860;4.698;2022-10-16T04:37:46;14.30;99.90
8850;DHT22;5638;50.860;4.698;2022-10-16T04:40:13;14.40;99.90
8850;DHT22;5638;50.860;4.698;2022-10-16T04:42:40;14.40;99.90
8850;DHT22;5638;50.860;4.698;2022-10-16T04:45:06;14.30;99.90
8850;DHT22;5638;50.860;4.698;2022-10-16T04:47:33;14.30;99.90
8850;DHT22;5638;50.860;4.698;2022-10-16T04:49:59;14.30;99.90
8850;DHT22;5638;50.860;4.698;2022-10-16T04:52:26;14.30;99.90
8850;DHT22;5638;50.860;4.698;2022-10-16T04:54:52;14.20;99.90
8850;DHT22;5638;50.860;4.698;2022-10-16T04:57:19;14.30;99.90
8850;DHT22;5638;50.860;4.698;2022-10-16T04:59:45;14.40;99.90
8850;DHT22;5638;50.860;4.698;2022-10-16T05:02:11;14.30;99.90
8850;DHT22;5638;50.860;4.698;2022-10-16T05:04:36;14.30;99.90
8850;DHT22;5638;50.860;4.698;2022-10-16T05:07:02;14.20;99.90
8850;DHT22;5638;50.860;4.698;2022-10-16T05:09:28;14.30;99.90
8850;DHT22;5638;50.860;4.698;2022-10-16T05:11:54;14.30;99.90
8850;DHT22;5638;50.860;4.698;2022-10-16T05:14:19;14.30;99.90
8850;DHT22;5638;50.860;4.698;2022-10-16T05:16:45;14.30;99.90
8850;DHT22;5638;50.860;4.698;2022-10-16T05:19:13;14.20;99.90
8850;DHT22;5638;50.860;4.698;2022-10-16T05:21:41;14.20;99.90
8850;DHT22;5638;50.860;4.698;2022-10-16T05:24:07;14.30;99.90
8850;DHT22;5638;50.860;4.698;2022-10-16T05:26:34;14.20;99.90
8850;DHT22;5638;50.860;4.698;2022-10-16T05:29:00;14.20;99.90
8850;DHT22;5638;50.860;4.698;2022-10-16T05:31:26;14.10;99.90
8850;DHT22;5638;50.860;4.698;2022-10-16T05:33:52;14.10;99.90
8850;DHT22;5638;50.860;4.698;2022-10-16T05:36:23;14.10;99.90
8850;DHT22;5638;50.860;4.698;2022-10-16T05:38:50;14.10;99.90
8850;DHT22;5638;50.860;4.698;2022-10-16T05:41:16;14.10;99.90
8850;DHT22;5638;50.860;4.698;2022-10-16T05:43:50;14.10;99.90
8850;DHT22;5638;50.860;4.698;2022-10-16T05:46:16;14.10;99.90
8850;DHT22;5638;50.860;4.698;2022-10-16T05:48:42;14.10;99.90
8850;DHT22;5638;50.860;4.698;2022-10-16T05:51:13;14.10;99.90
8850;DHT22;5638;50.860;4.698;2022-10-16T05:53:40;14.10;99.90
8850;DHT22;5638;50.860;4.698;2022-10-16T05:56:09;14.20;99.90
8850;DHT22;5638;50.860;4.698;2022-10-16T05:58:37;14.20;99.90
8850;DHT22;5638;50.860;4.698;2022-10-16T06:01:17;14.20;99.90
8850;DHT22;5638;50.860;4.698;2022-10-16T06:03:44;14.10;99.90
8850;DHT22;5638;50.860;4.698;2022-10-16T06:06:17;14.00;99.90
8850;DHT22;5638;50.860;4.698;2022-10-16T06:08:46;14.00;99.90
8850;DHT22;5638;50.860;4.698;2022-10-16T06:11:19;13.90;99.90
8850;DHT22;5638;50.860;4.698;2022-10-16T06:13:54;14.10;99.90
8850;DHT22;5638;50.860;4.698;2022-10-16T06:16:23;14.00;99.90
8850;DHT22;5638;50.860;4.698;2022-10-16T06:18:54;14.00;99.90
8850;DHT22;5638;50.860;4.698;2022-10-16T06:21:25;14.00;99.90
8850;DHT22;5638;50.860;4.698;2022-10-16T06:23:53;14.00;99.90
8850;DHT22;5638;50.860;4.698;2022-10-16T06:26:24;14.00;99.90
8850;DHT22;5638;50.860;4.698;2022-10-16T06:28:51;14.00;99.90
8850;DHT22;5638;50.860;4.698;2022-10-16T06:31:17;14.00;99.90
8850;DHT22;5638;50.860;4.698;2022-10-16T06:33:43;13.90;99.90
8850;DHT22;5638;50.860;4.698;2022-10-16T06:36:13;13.90;99.90
8850;DHT22;5638;50.860;4.698;2022-10-16T06:38:41;14.00;99.90
8850;DHT22;5638;50.860;4.698;2022-10-16T06:41:10;14.00;99.90
8850;DHT22;5638;50.860;4.698;2022-10-16T06:43:38;14.10;99.90
8850;DHT22;5638;50.860;4.698;2022-10-16T06:46:06;14.10;99.90
8850;DHT22;5638;50.860;4.698;2022-10-16T06:48:35;14.10;99.90
8850;DHT22;5638;50.860;4.698;2022-10-16T06:51:22;14.00;99.90
8850;DHT22;5638;50.860;4.698;2022-10-16T06:53:53;14.00;99.90
8850;DHT22;5638;50.860;4.698;2022-10-16T06:56:24;14.00;99.90
8850;DHT22;5638;50.860;4.698;2022-10-16T06:58:52;14.00;99.90
8850;DHT22;5638;50.860;4.698;2022-10-16T07:01:21;14.10;99.90
8850;DHT22;5638;50.860;4.698;2022-10-16T07:03:49;14.20;99.90
8850;DHT22;5638;50.860;4.698;2022-10-16T07:06:18;14.10;99.90
8850;DHT22;5638;50.860;4.698;2022-10-16T07:08:46;14.20;99.90
8850;DHT22;5638;50.860;4.698;2022-10-16T07:11:18;14.40;99.90
8850;DHT22;5638;50.860;4.698;2022-10-16T07:13:46;14.30;99.90
8850;DHT22;5638;50.860;4.698;2022-10-16T07:16:15;14.30;99.90
8850;DHT22;5638;50.860;4.698;2022-10-16T07:18:43;14.30;99.90
8850;DHT22;5638;50.860;4.698;2022-10-16T07:21:12;14.40;99.90
8850;DHT22;5638;50.860;4.698;2022-10-16T07:23:40;14.40;99.90
8850;DHT22;5638;50.860;4.698;2022-10-16T07:26:06;14.50;99.90
8850;DHT22;5638;50.860;4.698;2022-10-16T07:28:33;14.50;99.90
8850;DHT22;5638;50.860;4.698;2022-10-16T07:31:04;14.50;99.90
8850;DHT22;5638;50.860;4.698;2022-10-16T07:33:34;14.60;99.90
8850;DHT22;5638;50.860;4.698;2022-10-16T07:36:00;14.70;99.90
8850;DHT22;5638;50.860;4.698;2022-10-16T07:38:26;14.80;99.90
8850;DHT22;5638;50.860;4.698;2022-10-16T07:41:01;14.90;99.90
8850;DHT22;5638;50.860;4.698;2022-10-16T07:43:29;15.00;99.90
8850;DHT22;5638;50.860;4.698;2022-10-16T07:45:55;15.00;99.90
8850;DHT22;5638;50.860;4.698;2022-10-16T07:48:22;15.00;99.90
8850;DHT22;5638;50.860;4.698;2022-10-16T07:50:50;15.10;99.90
8850;DHT22;5638;50.860;4.698;2022-10-16T07:53:15;15.30;99.90
8850;DHT22;5638;50.860;4.698;2022-10-16T07:55:41;15.30;99.90
8850;DHT22;5638;50.860;4.698;2022-10-16T07:58:08;15.40;99.90
8850;DHT22;5638;50.860;4.698;2022-10-16T08:00:36;15.50;99.90
8850;DHT22;5638;50.860;4.698;2022-10-16T08:03:03;15.50;99.90
8850;DHT22;5638;50.860;4.698;2022-10-16T08:05:31;15.50;99.90
8850;DHT22;5638;50.860;4.698;2022-10-16T08:07:58;15.70;99.90
8850;DHT22;5638;50.860;4.698;2022-10-16T08:10:26;15.70;99.90
8850;DHT22;5638;50.860;4.698;2022-10-16T08:12:53;15.80;99.90
8850;DHT22;5638;50.860;4.698;2022-10-16T08:15:20;15.80;99.90
8850;DHT22;5638;50.860;4.698;2022-10-16T08:17:57;15.90;99.90
8850;DHT22;5638;50.860;4.698;2022-10-16T08:20:26;16.10;99.90
8850;DHT22;5638;50.860;4.698;2022-10-16T08:22:53;16.20;99.90
8850;DHT22;5638;50.860;4.698;2022-10-16T08:25:20;16.40;99.90
8850;DHT22;5638;50.860;4.698;2022-10-16T08:27:47;16.50;99.90
8850;DHT22;5638;50.860;4.698;2022-10-16T08:30:13;16.60;99.90
8850;DHT22;5638;50.860;4.698;2022-10-16T08:32:40;16.70;99.90
8850;DHT22;5638;50.860;4.698;2022-10-16T08:35:10;16.80;99.90
8850;DHT22;5638;50.860;4.698;2022-10-16T08:37:38;17.00;99.90
8850;DHT22;5638;50.860;4.698;2022-10-16T08:40:07;17.10;99.90
8850;DHT22;5638;50.860;4.698;2022-10-16T08:51:23;17.40;99.90
8850;DHT22;5638;50.860;4.698;2022-10-16T08:54:48;17.40;99.90
8850;DHT22;5638;50.860;4.698;2022-10-16T08:57:19;17.60;99.90
8850;DHT22;5638;50.860;4.698;2022-10-16T08:59:46;17.80;99.90
8850;DHT22;5638;50.860;4.698;2022-10-16T09:02:31;17.80;99.90
8850;DHT22;5638;50.860;4.698;2022-10-16T09:08:13;18.10;99.90
8850;DHT22;5638;50.860;4.698;2022-10-16T09:11:43;18.20;99.90
8850;DHT22;5638;50.860;4.698;2022-10-16T09:14:25;18.30;99.90
8850;DHT22;5638;50.860;4.698;2022-10-16T09:17:27;18.60;99.90
8850;DHT22;5638;50.860;4.698;2022-10-16T09:22:40;19.20;99.90
8850;DHT22;5638;50.860;4.698;2022-10-16T09:25:18;19.30;99.90
8850;DHT22;5638;50.860;4.698;2022-10-16T09:27:48;19.40;99.90
8850;DHT22;5638;50.860;4.698;2022-10-16T09:30:20;19.70;99.90
8850;DHT22;5638;50.860;4.698;2022-10-16T09:32:50;19.80;99.90
8850;DHT22;5638;50.860;4.698;2022-10-16T09:35:25;19.80;99.90
8850;DHT22;5638;50.860;4.698;2022-10-16T09:37:57;19.80;99.90
8850;DHT22;5638;50.860;4.698;2022-10-16T09:40:29;19.70;99.90
8850;DHT22;5638;50.860;4.698;2022-10-16T09:43:05;19.80;99.90
8850;DHT22;5638;50.860;4.698;2022-10-16T09:46:00;19.90;99.90
8850;DHT22;5638;50.860;4.698;2022-10-16T09:51:38;20.20;99.90
8850;DHT22;5638;50.860;4.698;2022-10-16T09:56:38;20.40;99.90
8850;DHT22;5638;50.860;4.698;2022-10-16T09:59:11;20.40;99.90
8850;DHT22;5638;50.860;4.698;2022-10-16T10:04:08;20.70;99.90
8850;DHT22;5638;50.860;4.698;2022-10-16T10:06:37;20.90;99.90
8850;DHT22;5638;50.860;4.698;2022-10-16T10:11:56;20.90;99.90
8850;DHT22;5638;50.860;4.698;2022-10-16T10:14:37;21.00;99.90
8850;DHT22;5638;50.860;4.698;2022-10-16T10:33:25;21.30;99.90
8850;DHT22;5638;50.860;4.698;2022-10-16T10:44:16;21.50;99.90
8850;DHT22;5638;50.860;4.698;2022-10-16T10:47:27;21.80;99.90
8850;DHT22;5638;50.860;4.698;2022-10-16T10:50:07;22.00;99.90
8850;DHT22;5638;50.860;4.698;2022-10-16T10:59:09;21.10;99.90
8850;DHT22;5638;50.860;4.698;2022-10-16T11:02:35;21.40;99.90
8850;DHT22;5638;50.860;4.698;2022-10-16T11:08:02;22.20;99.90
8850;DHT22;5638;50.860;4.698;2022-10-16T11:10:58;22.20;99.90
8850;DHT22;5638;50.860;4.698;2022-10-16T11:16:15;21.70;99.90
8850;DHT22;5638;50.860;4.698;2022-10-16T11:18:48;21.80;99.90
8850;DHT22;5638;50.860;4.698;2022-10-16T11:21:19;21.60;99.90
8850;DHT22;5638;50.860;4.698;2022-10-16T11:23:53;21.40;99.90
8850;DHT22;5638;50.860;4.698;2022-10-16T11:26:30;21.10;99.90
8850;DHT22;5638;50.860;4.698;2022-10-16T11:29:01;20.80;99.90
8850;DHT22;5638;50.860;4.698;2022-10-16T11:31:41;21.00;99.90
8850;DHT22;5638;50.860;4.698;2022-10-16T11:37:14;22.00;99.90
8850;DHT22;5638;50.860;4.698;2022-10-16T11:39:45;22.40;99.90
8850;DHT22;5638;50.860;4.698;2022-10-16T11:42:20;22.20;99.90
8850;DHT22;5638;50.860;4.698;2022-10-16T11:48:06;21.90;99.90
8850;DHT22;5638;50.860;4.698;2022-10-16T11:50:56;21.70;99.90
8850;DHT22;5638;50.860;4.698;2022-10-16T11:56:06;21.60;99.90
8850;DHT22;5638;50.860;4.698;2022-10-16T12:09:39;21.00;99.90
8850;DHT22;5638;50.860;4.698;2022-10-16T12:12:42;20.70;99.90
8850;DHT22;5638;50.860;4.698;2022-10-16T12:15:29;20.50;99.90
8850;DHT22;5638;50.860;4.698;2022-10-16T12:17:58;20.50;99.90
8850;DHT22;5638;50.860;4.698;2022-10-16T12:20:29;20.50;99.90
8850;DHT22;5638;50.860;4.698;2022-10-16T12:23:03;20.50;99.90
8850;DHT22;5638;50.860;4.698;2022-10-16T12:25:33;20.60;99.90
8850;DHT22;5638;50.860;4.698;2022-10-16T12:28:21;20.80;99.90
8850;DHT22;5638;50.860;4.698;2022-10-16T12:31:05;20.90;99.90
8850;DHT22;5638;50.860;4.698;2022-10-16T12:33:40;21.00;99.90
8850;DHT22;5638;50.860;4.698;2022-10-16T12:36:26;20.90;99.90
8850;DHT22;5638;50.860;4.698;2022-10-16T12:38:54;20.80;99.90
8850;DHT22;5638;50.860;4.698;2022-10-16T12:41:29;20.70;99.90
8850;DHT22;5638;50.860;4.698;2022-10-16T12:44:00;20.60;99.90
8850;DHT22;5638;50.860;4.698;2022-10-16T12:49:29;20.50;99.90
8850;DHT22;5638;50.860;4.698;2022-10-16T12:51:58;20.40;99.90
8850;DHT22;5638;50.860;4.698;2022-10-16T13:00:04;20.30;99.90
8850;DHT22;5638;50.860;4.698;2022-10-16T13:05:48;20.30;99.90
8850;DHT22;5638;50.860;4.698;2022-10-16T13:23:36;20.30;99.90
8850;DHT22;5638;50.860;4.698;2022-10-16T13:26:35;20.40;99.90
8850;DHT22;5638;50.860;4.698;2022-10-16T13:29:15;20.40;99.90
8850;DHT22;5638;50.860;4.698;2022-10-16T13:31:43;20.40;99.90
8850;DHT22;5638;50.860;4.698;2022-10-16T13:34:15;20.40;99.90
8850;DHT22;5638;50.860;4.698;2022-10-16T13:36:50;20.30;99.90
8850;DHT22;5638;50.860;4.698;2022-10-16T13:39:29;20.30;99.90
8850;DHT22;5638;50.860;4.698;2022-10-16T13:42:05;20.20;99.90
8850;DHT22;5638;50.860;4.698;2022-10-16T13:44:44;20.20;99.90
8850;DHT22;5638;50.860;4.698;2022-10-16T13:47:31;20.30;99.90
8850;DHT22;5638;50.860;4.698;2022-10-16T13:52:27;20.80;99.90
8850;DHT22;5638;50.860;4.698;2022-10-16T13:54:53;20.80;99.90
8850;DHT22;5638;50.860;4.698;2022-10-16T13:57:23;20.60;99.90
8850;DHT22;5638;50.860;4.698;2022-10-16T13:59:50;20.50;99.90
8850;DHT22;5638;50.860;4.698;2022-10-16T14:05:08;20.50;99.90
8850;DHT22;5638;50.860;4.698;2022-10-16T14:07:36;20.40;99.90
8850;DHT22;5638;50.860;4.698;2022-10-16T14:10:07;20.30;99.90
8850;DHT22;5638;50.860;4.698;2022-10-16T14:12:54;20.30;99.90
8850;DHT22;5638;50.860;4.698;2022-10-16T14:15:22;20.30;99.90
8850;DHT22;5638;50.860;4.698;2022-10-16T14:17:50;20.30;99.90
8850;DHT22;5638;50.860;4.698;2022-10-16T14:20:18;20.30;99.90
8850;DHT22;5638;50.860;4.698;2022-10-16T14:22:59;20.20;99.90
8850;DHT22;5638;50.860;4.698;2022-10-16T14:25:31;20.20;99.90
8850;DHT22;5638;50.860;4.698;2022-10-16T14:30:56;20.10;99.90
8850;DHT22;5638;50.860;4.698;2022-10-16T14:33:31;20.00;99.90
8850;DHT22;5638;50.860;4.698;2022-10-16T14:36:05;20.00;99.90
8850;DHT22;5638;50.860;4.698;2022-10-16T14:38:43;20.00;99.90
8850;DHT22;5638;50.860;4.698;2022-10-16T14:41:15;20.00;99.90
8850;DHT22;5638;50.860;4.698;2022-10-16T14:43:51;20.00;99.90
8850;DHT22;5638;50.860;4.698;2022-10-16T14:46:23;20.10;99.90
8850;DHT22;5638;50.860;4.698;2022-10-16T14:49:20;20.10;99.90
8850;DHT22;5638;50.860;4.698;2022-10-16T14:51:47;20.20;99.90
8850;DHT22;5638;50.860;4.698;2022-10-16T14:54:15;20.20;99.90
8850;DHT22;5638;50.860;4.698;2022-10-16T14:59:20;20.20;99.90
8850;DHT22;5638;50.860;4.698;2022-10-16T15:01:54;20.20;99.90
8850;DHT22;5638;50.860;4.698;2022-10-16T15:04:20;20.10;99.90
8850;DHT22;5638;50.860;4.698;2022-10-16T15:06:46;20.10;99.90
8850;DHT22;5638;50.860;4.698;2022-10-16T15:09:12;20.00;99.90
8850;DHT22;5638;50.860;4.698;2022-10-16T15:11:38;20.00;99.90
8850;DHT22;5638;50.860;4.698;2022-10-16T15:14:05;20.00;99.90
8850;DHT22;5638;50.860;4.698;2022-10-16T15:16:31;19.90;99.90
8850;DHT22;5638;50.860;4.698;2022-10-16T15:18:58;19.80;99.90
8850;DHT22;5638;50.860;4.698;2022-10-16T15:21:31;19.80;99.90
8850;DHT22;5638;50.860;4.698;2022-10-16T15:23:59;19.80;99.90
8850;DHT22;5638;50.860;4.698;2022-10-16T15:26:27;19.80;99.90
8850;DHT22;5638;50.860;4.698;2022-10-16T15:28:54;19.90;99.90
8850;DHT22;5638;50.860;4.698;2022-10-16T15:31:26;19.80;99.90
8850;DHT22;5638;50.860;4.698;2022-10-16T15:33:55;19.80;99.90
8850;DHT22;5638;50.860;4.698;2022-10-16T15:36:32;19.80;99.90
8850;DHT22;5638;50.860;4.698;2022-10-16T15:39:11;19.80;99.90
8850;DHT22;5638;50.860;4.698;2022-10-16T15:41:39;19.80;99.90
8850;DHT22;5638;50.860;4.698;2022-10-16T15:44:08;19.70;99.90
8850;DHT22;5638;50.860;4.698;2022-10-16T15:46:34;19.70;99.90
8850;DHT22;5638;50.860;4.698;2022-10-16T15:49:01;19.70;99.90
8850;DHT22;5638;50.860;4.698;2022-10-16T15:51:27;19.60;99.90
8850;DHT22;5638;50.860;4.698;2022-10-16T15:53:56;19.60;99.90
8850;DHT22;5638;50.860;4.698;2022-10-16T15:56:23;19.60;99.90
8850;DHT22;5638;50.860;4.698;2022-10-16T15:58:51;19.60;99.90
8850;DHT22;5638;50.860;4.698;2022-10-16T16:01:19;19.50;99.90
8850;DHT22;5638;50.860;4.698;2022-10-16T16:03:45;19.40;99.90
8850;DHT22;5638;50.860;4.698;2022-10-16T16:06:13;19.40;99.90
8850;DHT22;5638;50.860;4.698;2022-10-16T16:08:39;19.40;99.90
8850;DHT22;5638;50.860;4.698;2022-10-16T16:11:10;19.40;99.90
8850;DHT22;5638;50.860;4.698;2022-10-16T16:13:38;19.40;99.90
8850;DHT22;5638;50.860;4.698;2022-10-16T16:16:14;19.30;99.90
8850;DHT22;5638;50.860;4.698;2022-10-16T16:18:42;19.20;99.90
8850;DHT22;5638;50.860;4.698;2022-10-16T16:21:10;19.20;99.90
8850;DHT22;5638;50.860;4.698;2022-10-16T16:23:37;19.20;99.90
8850;DHT22;5638;50.860;4.698;2022-10-16T16:26:04;19.10;99.90
8850;DHT22;5638;50.860;4.698;2022-10-16T16:28:36;19.10;99.90
8850;DHT22;5638;50.860;4.698;2022-10-16T16:31:03;19.10;99.90
8850;DHT22;5638;50.860;4.698;2022-10-16T16:33:29;19.00;99.90
8850;DHT22;5638;50.860;4.698;2022-10-16T16:36:02;19.10;99.90
8850;DHT22;5638;50.860;4.698;2022-10-16T16:38:32;19.00;99.90
8850;DHT22;5638;50.860;4.698;2022-10-16T16:40:59;19.00;99.90
8850;DHT22;5638;50.860;4.698;2022-10-16T16:43:26;18.90;99.90
8850;DHT22;5638;50.860;4.698;2022-10-16T16:45:53;18.90;99.90
8850;DHT22;5638;50.860;4.698;2022-10-16T16:48:22;18.90;99.90
8850;DHT22;5638;50.860;4.698;2022-10-16T16:50:48;18.90;99.90
8850;DHT22;5638;50.860;4.698;2022-10-16T16:53:14;18.90;99.90
8850;DHT22;5638;50.860;4.698;2022-10-16T16:55:41;18.90;99.90
8850;DHT22;5638;50.860;4.698;2022-10-16T16:58:06;18.90;99.90
8850;DHT22;5638;50.860;4.698;2022-10-16T17:00:32;18.80;99.90
8850;DHT22;5638;50.860;4.698;2022-10-16T17:02:58;18.80;99.90
8850;DHT22;5638;50.860;4.698;2022-10-16T17:05:24;18.90;99.90
8850;DHT22;5638;50.860;4.698;2022-10-16T17:07:51;18.90;99.90
8850;DHT22;5638;50.860;4.698;2022-10-16T17:10:17;18.80;99.90
8850;DHT22;5638;50.860;4.698;2022-10-16T17:12:43;18.90;99.90
8850;DHT22;5638;50.860;4.698;2022-10-16T17:15:09;18.90;99.90
8850;DHT22;5638;50.860;4.698;2022-10-16T17:17:35;18.90;99.90
8850;DHT22;5638;50.860;4.698;2022-10-16T17:20:01;19.00;99.90
8850;DHT22;5638;50.860;4.698;2022-10-16T17:22:26;18.90;99.90
8850;DHT22;5638;50.860;4.698;2022-10-16T17:24:52;18.80;99.90
8850;DHT22;5638;50.860;4.698;2022-10-16T17:27:19;18.80;99.90
8850;DHT22;5638;50.860;4.698;2022-10-16T17:29:50;18.70;99.90
8850;DHT22;5638;50.860;4.698;2022-10-16T17:32:16;18.70;99.90
8850;DHT22;5638;50.860;4.698;2022-10-16T17:34:42;18.60;99.90
8850;DHT22;5638;50.860;4.698;2022-10-16T17:37:11;18.50;99.90
8850;DHT22;5638;50.860;4.698;2022-10-16T17:39:37;18.40;99.90
8850;DHT22;5638;50.860;4.698;2022-10-16T17:42:03;18.30;99.90
8850;DHT22;5638;50.860;4.698;2022-10-16T17:44:29;18.20;99.90
8850;DHT22;5638;50.860;4.698;2022-10-16T17:46:55;18.20;99.90
8850;DHT22;5638;50.860;4.698;2022-10-16T17:49:21;18.10;99.90
8850;DHT22;5638;50.860;4.698;2022-10-16T17:51:52;18.00;99.90
8850;DHT22;5638;50.860;4.698;2022-10-16T17:54:18;18.00;99.90
8850;DHT22;5638;50.860;4.698;2022-10-16T17:56:45;18.00;99.90
8850;DHT22;5638;50.860;4.698;2022-10-16T17:59:13;17.90;99.90
8850;DHT22;5638;50.860;4.698;2022-10-16T18:01:39;17.90;99.90
8850;DHT22;5638;50.860;4.698;2022-10-16T18:04:11;17.80;99.90
8850;DHT22;5638;50.860;4.698;2022-10-16T18:06:40;17.90;99.90
8850;DHT22;5638;50.860;4.698;2022-10-16T18:09:09;17.80;99.90
8850;DHT22;5638;50.860;4.698;2022-10-16T18:11:37;17.70;99.90
8850;DHT22;5638;50.860;4.698;2022-10-16T18:14:03;17.70;99.90
8850;DHT22;5638;50.860;4.698;2022-10-16T18:16:30;17.70;99.90
8850;DHT22;5638;50.860;4.698;2022-10-16T18:18:58;17.70;99.90
8850;DHT22;5638;50.860;4.698;2022-10-16T18:21:25;17.70;99.90
8850;DHT22;5638;50.860;4.698;2022-10-16T18:23:53;17.70;99.90
8850;DHT22;5638;50.860;4.698;2022-10-16T18:26:20;17.70;99.90
8850;DHT22;5638;50.860;4.698;2022-10-16T18:28:47;17.70;99.90
8850;DHT22;5638;50.860;4.698;2022-10-16T18:31:14;17.70;99.90
8850;DHT22;5638;50.860;4.698;2022-10-16T18:33:42;17.70;99.90
8850;DHT22;5638;50.860;4.698;2022-10-16T18:36:13;17.80;99.90
8850;DHT22;5638;50.860;4.698;2022-10-16T18:38:40;17.80;99.90
8850;DHT22;5638;50.860;4.698;2022-10-16T18:41:06;17.80;99.90